sensor_id;sensor_type;location;lat;lon;timestamp;P1;durP1;ratioP1;P2;durP2;ratioP2
74293;SDS011;64044;59.904;10.738;2023-11-21T00:02:20;9.10;;;5.18;;
74293;SDS011;64044;59.904;10.738;2023-11-21T00:04:46;7.30;;;4.78;;
74293;SDS011;64044;59.904;10.738;2023-11-21T00:07:13;8.65;;;5.22;;
74293;SDS011;64044;59.904;10.738;2023-11-21T00:09:39;9.10;;;5.22;;
74293;SDS011;64044;59.904;10.738;2023-11-21T00:12:06;10.27;;;5.68;;
74293;SDS011;64044;59.904;10.738;2023-11-21T00:14:35;9.30;;;4.93;;
74293;SDS011;64044;59.904;10.738;2023-11-21T00:17:01;8.63;;;5.60;;
74293;SDS011;64044;59.904;10.738;2023-11-21T00:19:27;7.85;;;4.55;;
74293;SDS011;64044;59.904;10.738;2023-11-21T00:21:53;7.47;;;4.97;;
74293;SDS011;64044;59.904;10.738;2023-11-21T00:24:19;10.55;;;5.03;;
74293;SDS011;64044;59.904;10.738;2023-11-21T00:26:45;8.45;;;4.80;;
74293;SDS011;64044;59.904;10.738;2023-11-21T00:29:13;7.35;;;4.40;;
74293;SDS011;64044;59.904;10.738;2023-11-21T00:31:42;8.98;;;5.00;;
74293;SDS011;64044;59.904;10.738;2023-11-21T00:34:08;6.80;;;4.53;;
74293;SDS011;64044;59.904;10.738;2023-11-21T00:36:34;7.53;;;5.18;;
74293;SDS011;64044;59.904;10.738;2023-11-21T00:39:00;6.43;;;3.75;;
74293;SDS011;64044;59.904;10.738;2023-11-21T00:41:28;7.05;;;4.45;;
74293;SDS011;64044;59.904;10.738;2023-11-21T00:43:54;9.07;;;4.82;;
74293;SDS011;64044;59.904;10.738;2023-11-21T00:46:20;8.30;;;4.70;;
74293;SDS011;64044;59.904;10.738;2023-11-21T00:48:46;10.07;;;5.60;;
74293;SDS011;64044;59.904;10.738;2023-11-21T00:51:12;7.50;;;4.38;;
74293;SDS011;64044;59.904;10.738;2023-11-21T00:53:37;7.88;;;4.25;;
74293;SDS011;64044;59.904;10.738;2023-11-21T00:56:03;10.48;;;4.20;;
74293;SDS011;64044;59.904;10.738;2023-11-21T00:58:29;9.30;;;4.65;;
74293;SDS011;64044;59.904;10.738;2023-11-21T01:00:55;8.25;;;4.68;;
74293;SDS011;64044;59.904;10.738;2023-11-21T01:03:21;6.63;;;4.45;;
74293;SDS011;64044;59.904;10.738;2023-11-21T01:05:47;8.90;;;4.55;;
74293;SDS011;64044;59.904;10.738;2023-11-21T01:08:15;7.57;;;4.88;;
74293;SDS011;64044;59.904;10.738;2023-11-21T01:10:41;8.85;;;4.72;;
74293;SDS011;64044;59.904;10.738;2023-11-21T01:13:06;8.50;;;5.13;;
74293;SDS011;64044;59.904;10.738;2023-11-21T01:15:32;9.05;;;5.25;;
74293;SDS011;64044;59.904;10.738;2023-11-21T01:17:58;10.13;;;5.20;;
74293;SDS011;64044;59.904;10.738;2023-11-21T01:20:24;7.18;;;4.15;;
74293;SDS011;64044;59.904;10.738;2023-11-21T01:22:51;7.78;;;4.47;;
74293;SDS011;64044;59.904;10.738;2023-11-21T01:25:19;8.98;;;4.55;;
74293;SDS011;64044;59.904;10.738;2023-11-21T01:27:46;8.82;;;5.10;;
74293;SDS011;64044;59.904;10.738;2023-11-21T01:30:12;8.38;;;5.20;;
74293;SDS011;64044;59.904;10.738;2023-11-21T01:32:38;9.93;;;5.18;;
74293;SDS011;64044;59.904;10.738;2023-11-21T01:35:04;7.28;;;4.60;;
74293;SDS011;64044;59.904;10.738;2023-11-21T01:37:31;8.10;;;5.13;;
74293;SDS011;64044;59.904;10.738;2023-11-21T01:39:58;8.52;;;5.30;;
74293;SDS011;64044;59.904;10.738;2023-11-21T01:42:26;7.75;;;4.53;;
74293;SDS011;64044;59.904;10.738;2023-11-21T01:44:52;7.93;;;5.00;;
74293;SDS011;64044;59.904;10.738;2023-11-21T01:47:19;7.20;;;4.75;;
74293;SDS011;64044;59.904;10.738;2023-11-21T01:49:46;8.18;;;5.25;;
74293;SDS011;64044;59.904;10.738;2023-11-21T01:52:12;8.30;;;4.47;;
74293;SDS011;64044;59.904;10.738;2023-11-21T01:54:39;7.65;;;4.68;;
74293;SDS011;64044;59.904;10.738;2023-11-21T01:57:07;7.13;;;4.57;;
74293;SDS011;64044;59.904;10.738;2023-11-21T01:59:39;12.15;;;5.03;;
74293;SDS011;64044;59.904;10.738;2023-11-21T02:02:07;8.23;;;4.65;;
74293;SDS011;64044;59.904;10.738;2023-11-21T02:04:34;7.75;;;4.85;;
74293;SDS011;64044;59.904;10.738;2023-11-21T02:07:04;6.65;;;4.38;;
74293;SDS011;64044;59.904;10.738;2023-11-21T02:09:32;7.10;;;4.82;;
74293;SDS011;64044;59.904;10.738;2023-11-21T02:11:59;7.20;;;4.05;;
74293;SDS011;64044;59.904;10.738;2023-11-21T02:14:28;6.50;;;4.22;;
74293;SDS011;64044;59.904;10.738;2023-11-21T02:16:56;7.23;;;4.53;;
74293;SDS011;64044;59.904;10.738;2023-11-21T02:19:22;6.72;;;4.22;;
74293;SDS011;64044;59.904;10.738;2023-11-21T02:21:50;8.02;;;4.70;;
74293;SDS011;64044;59.904;10.738;2023-11-21T02:24:21;8.05;;;4.40;;
74293;SDS011;64044;59.904;10.738;2023-11-21T02:29:38;8.45;;;4.60;;
74293;SDS011;64044;59.904;10.738;2023-11-21T02:32:05;9.05;;;4.50;;
74293;SDS011;64044;59.904;10.738;2023-11-21T02:34:31;6.45;;;4.13;;
74293;SDS011;64044;59.904;10.738;2023-11-21T02:36:57;7.85;;;4.43;;
74293;SDS011;64044;59.904;10.738;2023-11-21T02:39:22;8.05;;;4.30;;
74293;SDS011;64044;59.904;10.738;2023-11-21T02:41:49;7.43;;;4.30;;
74293;SDS011;64044;59.904;10.738;2023-11-21T02:44:15;7.28;;;4.70;;
74293;SDS011;64044;59.904;10.738;2023-11-21T02:46:41;9.70;;;5.28;;
74293;SDS011;64044;59.904;10.738;2023-11-21T02:49:07;8.80;;;5.07;;
74293;SDS011;64044;59.904;10.738;2023-11-21T02:51:35;7.00;;;4.45;;
74293;SDS011;64044;59.904;10.738;2023-11-21T02:54:03;8.20;;;4.60;;
74293;SDS011;64044;59.904;10.738;2023-11-21T02:56:31;6.60;;;4.10;;
74293;SDS011;64044;59.904;10.738;2023-11-21T02:58:59;7.45;;;4.68;;
74293;SDS011;64044;59.904;10.738;2023-11-21T03:01:25;7.90;;;4.50;;
74293;SDS011;64044;59.904;10.738;2023-11-21T03:03:52;7.13;;;3.80;;
74293;SDS011;64044;59.904;10.738;2023-11-21T03:06:18;5.85;;;3.92;;
74293;SDS011;64044;59.904;10.738;2023-11-21T03:08:45;6.47;;;4.80;;
74293;SDS011;64044;59.904;10.738;2023-11-21T03:11:11;7.32;;;4.80;;
74293;SDS011;64044;59.904;10.738;2023-11-21T03:13:40;7.97;;;4.70;;
74293;SDS011;64044;59.904;10.738;2023-11-21T03:16:10;6.70;;;3.50;;
74293;SDS011;64044;59.904;10.738;2023-11-21T03:18:36;7.75;;;4.55;;
74293;SDS011;64044;59.904;10.738;2023-11-21T03:21:03;8.63;;;4.90;;
74293;SDS011;64044;59.904;10.738;2023-11-21T03:23:30;6.80;;;4.32;;
74293;SDS011;64044;59.904;10.738;2023-11-21T03:25:56;8.73;;;4.30;;
74293;SDS011;64044;59.904;10.738;2023-11-21T03:28:21;8.15;;;4.55;;
74293;SDS011;64044;59.904;10.738;2023-11-21T03:30:48;9.25;;;5.35;;
74293;SDS011;64044;59.904;10.738;2023-11-21T03:33:14;10.90;;;5.10;;
74293;SDS011;64044;59.904;10.738;2023-11-21T03:35:40;7.82;;;4.45;;
74293;SDS011;64044;59.904;10.738;2023-11-21T03:38:07;7.38;;;4.50;;
74293;SDS011;64044;59.904;10.738;2023-11-21T03:40:34;8.10;;;4.65;;
74293;SDS011;64044;59.904;10.738;2023-11-21T03:43:00;7.72;;;4.90;;
74293;SDS011;64044;59.904;10.738;2023-11-21T03:45:26;7.53;;;4.53;;
74293;SDS011;64044;59.904;10.738;2023-11-21T03:47:52;8.18;;;5.07;;
74293;SDS011;64044;59.904;10.738;2023-11-21T03:50:17;11.40;;;5.32;;
74293;SDS011;64044;59.904;10.738;2023-11-21T03:52:43;6.88;;;4.57;;
74293;SDS011;64044;59.904;10.738;2023-11-21T03:55:09;9.57;;;4.90;;
74293;SDS011;64044;59.904;10.738;2023-11-21T03:57:35;7.57;;;4.43;;
74293;SDS011;64044;59.904;10.738;2023-11-21T04:00:01;7.97;;;4.82;;
74293;SDS011;64044;59.904;10.738;2023-11-21T04:02:29;7.15;;;4.15;;
74293;SDS011;64044;59.904;10.738;2023-11-21T04:04:56;6.70;;;4.57;;
74293;SDS011;64044;59.904;10.738;2023-11-21T04:07:22;8.00;;;4.65;;
74293;SDS011;64044;59.904;10.738;2023-11-21T04:09:48;8.15;;;4.78;;
74293;SDS011;64044;59.904;10.738;2023-11-21T04:12:13;6.53;;;4.57;;
74293;SDS011;64044;59.904;10.738;2023-11-21T04:14:39;9.40;;;4.90;;
74293;SDS011;64044;59.904;10.738;2023-11-21T04:17:05;7.57;;;4.70;;
74293;SDS011;64044;59.904;10.738;2023-11-21T04:19:31;7.13;;;4.72;;
74293;SDS011;64044;59.904;10.738;2023-11-21T04:21:57;7.72;;;4.55;;
74293;SDS011;64044;59.904;10.738;2023-11-21T04:24:22;8.25;;;4.45;;
74293;SDS011;64044;59.904;10.738;2023-11-21T04:26:48;10.95;;;4.85;;
74293;SDS011;64044;59.904;10.738;2023-11-21T04:29:14;8.05;;;4.60;;
74293;SDS011;64044;59.904;10.738;2023-11-21T04:31:39;9.20;;;4.75;;
74293;SDS011;64044;59.904;10.738;2023-11-21T04:34:06;7.82;;;5.10;;
74293;SDS011;64044;59.904;10.738;2023-11-21T04:36:33;8.60;;;4.97;;
74293;SDS011;64044;59.904;10.738;2023-11-21T04:39:00;8.90;;;4.50;;
74293;SDS011;64044;59.904;10.738;2023-11-21T04:41:25;7.93;;;4.78;;
74293;SDS011;64044;59.904;10.738;2023-11-21T04:43:51;9.52;;;5.57;;
74293;SDS011;64044;59.904;10.738;2023-11-21T04:46:17;7.68;;;5.00;;
74293;SDS011;64044;59.904;10.738;2023-11-21T04:48:42;6.68;;;4.72;;
74293;SDS011;64044;59.904;10.738;2023-11-21T04:51:09;7.53;;;4.90;;
74293;SDS011;64044;59.904;10.738;2023-11-21T04:53:36;7.20;;;4.70;;
74293;SDS011;64044;59.904;10.738;2023-11-21T04:56:02;8.90;;;5.03;;
74293;SDS011;64044;59.904;10.738;2023-11-21T04:58:28;7.88;;;5.07;;
74293;SDS011;64044;59.904;10.738;2023-11-21T05:00:54;8.43;;;4.90;;
74293;SDS011;64044;59.904;10.738;2023-11-21T05:03:20;10.02;;;5.70;;
74293;SDS011;64044;59.904;10.738;2023-11-21T05:05:45;8.93;;;5.20;;
74293;SDS011;64044;59.904;10.738;2023-11-21T05:08:11;7.03;;;4.68;;
74293;SDS011;64044;59.904;10.738;2023-11-21T05:10:38;9.60;;;5.03;;
74293;SDS011;64044;59.904;10.738;2023-11-21T05:13:04;8.30;;;4.82;;
74293;SDS011;64044;59.904;10.738;2023-11-21T05:15:34;8.60;;;4.93;;
74293;SDS011;64044;59.904;10.738;2023-11-21T05:18:00;8.63;;;5.25;;
74293;SDS011;64044;59.904;10.738;2023-11-21T05:20:26;8.40;;;5.05;;
74293;SDS011;64044;59.904;10.738;2023-11-21T05:22:51;10.73;;;5.63;;
74293;SDS011;64044;59.904;10.738;2023-11-21T05:25:17;8.63;;;5.22;;
74293;SDS011;64044;59.904;10.738;2023-11-21T05:27:44;9.50;;;5.30;;
74293;SDS011;64044;59.904;10.738;2023-11-21T05:30:38;8.93;;;4.82;;
74293;SDS011;64044;59.904;10.738;2023-11-21T05:33:04;11.25;;;5.50;;
74293;SDS011;64044;59.904;10.738;2023-11-21T05:35:30;9.90;;;5.57;;
74293;SDS011;64044;59.904;10.738;2023-11-21T05:37:56;8.95;;;5.10;;
74293;SDS011;64044;59.904;10.738;2023-11-21T05:40:22;10.60;;;5.85;;
74293;SDS011;64044;59.904;10.738;2023-11-21T05:42:48;11.25;;;5.57;;
74293;SDS011;64044;59.904;10.738;2023-11-21T05:45:13;11.73;;;6.25;;
74293;SDS011;64044;59.904;10.738;2023-11-21T05:50:08;13.52;;;6.45;;
74293;SDS011;64044;59.904;10.738;2023-11-21T05:52:36;19.40;;;6.43;;
74293;SDS011;64044;59.904;10.738;2023-11-21T05:55:02;10.38;;;6.07;;
74293;SDS011;64044;59.904;10.738;2023-11-21T05:57:32;12.02;;;6.25;;
74293;SDS011;64044;59.904;10.738;2023-11-21T06:02:36;9.48;;;6.40;;
74293;SDS011;64044;59.904;10.738;2023-11-21T06:05:05;11.38;;;6.53;;
74293;SDS011;64044;59.904;10.738;2023-11-21T06:07:34;12.45;;;6.57;;
74293;SDS011;64044;59.904;10.738;2023-11-21T06:10:03;13.25;;;6.25;;
74293;SDS011;64044;59.904;10.738;2023-11-21T06:12:36;10.80;;;6.35;;
74293;SDS011;64044;59.904;10.738;2023-11-21T06:15:03;14.77;;;6.28;;
74293;SDS011;64044;59.904;10.738;2023-11-21T06:17:30;14.02;;;6.50;;
74293;SDS011;64044;59.904;10.738;2023-11-21T06:19:56;11.40;;;7.45;;
74293;SDS011;64044;59.904;10.738;2023-11-21T06:22:22;10.60;;;6.85;;
74293;SDS011;64044;59.904;10.738;2023-11-21T06:24:48;11.07;;;6.93;;
74293;SDS011;64044;59.904;10.738;2023-11-21T06:27:14;13.30;;;6.90;;
74293;SDS011;64044;59.904;10.738;2023-11-21T06:29:41;13.15;;;6.63;;
74293;SDS011;64044;59.904;10.738;2023-11-21T06:32:07;16.35;;;7.93;;
74293;SDS011;64044;59.904;10.738;2023-11-21T06:34:33;12.80;;;6.75;;
74293;SDS011;64044;59.904;10.738;2023-11-21T06:36:59;12.05;;;7.30;;
74293;SDS011;64044;59.904;10.738;2023-11-21T06:39:25;15.93;;;6.95;;
74293;SDS011;64044;59.904;10.738;2023-11-21T06:41:50;13.38;;;7.32;;
74293;SDS011;64044;59.904;10.738;2023-11-21T06:44:16;13.40;;;8.02;;
74293;SDS011;64044;59.904;10.738;2023-11-21T06:46:42;14.88;;;8.00;;
74293;SDS011;64044;59.904;10.738;2023-11-21T06:49:08;13.20;;;7.03;;
74293;SDS011;64044;59.904;10.738;2023-11-21T06:51:33;13.70;;;7.88;;
74293;SDS011;64044;59.904;10.738;2023-11-21T06:53:59;15.63;;;8.30;;
74293;SDS011;64044;59.904;10.738;2023-11-21T06:56:25;15.05;;;8.55;;
74293;SDS011;64044;59.904;10.738;2023-11-21T06:58:51;15.40;;;7.97;;
74293;SDS011;64044;59.904;10.738;2023-11-21T07:01:19;14.95;;;7.43;;
74293;SDS011;64044;59.904;10.738;2023-11-21T07:03:45;14.90;;;7.50;;
74293;SDS011;64044;59.904;10.738;2023-11-21T07:06:11;14.63;;;7.45;;
74293;SDS011;64044;59.904;10.738;2023-11-21T07:08:37;17.67;;;8.43;;
74293;SDS011;64044;59.904;10.738;2023-11-21T07:11:03;15.23;;;7.82;;
74293;SDS011;64044;59.904;10.738;2023-11-21T07:13:29;22.10;;;8.13;;
74293;SDS011;64044;59.904;10.738;2023-11-21T07:15:55;12.77;;;7.65;;
74293;SDS011;64044;59.904;10.738;2023-11-21T07:18:22;13.93;;;7.40;;
74293;SDS011;64044;59.904;10.738;2023-11-21T07:20:49;15.55;;;7.38;;
74293;SDS011;64044;59.904;10.738;2023-11-21T07:23:14;15.75;;;7.45;;
74293;SDS011;64044;59.904;10.738;2023-11-21T07:25:40;11.80;;;6.85;;
74293;SDS011;64044;59.904;10.738;2023-11-21T07:28:08;15.30;;;7.45;;
74293;SDS011;64044;59.904;10.738;2023-11-21T07:30:34;17.77;;;8.07;;
74293;SDS011;64044;59.904;10.738;2023-11-21T07:33:00;14.48;;;7.68;;
74293;SDS011;64044;59.904;10.738;2023-11-21T07:35:26;16.65;;;7.82;;
74293;SDS011;64044;59.904;10.738;2023-11-21T07:37:51;17.55;;;8.55;;
74293;SDS011;64044;59.904;10.738;2023-11-21T07:40:17;18.85;;;7.97;;
74293;SDS011;64044;59.904;10.738;2023-11-21T07:42:43;14.77;;;8.15;;
74293;SDS011;64044;59.904;10.738;2023-11-21T07:45:09;19.27;;;9.27;;
74293;SDS011;64044;59.904;10.738;2023-11-21T07:47:34;17.02;;;9.45;;
74293;SDS011;64044;59.904;10.738;2023-11-21T07:50:02;17.30;;;8.82;;
74293;SDS011;64044;59.904;10.738;2023-11-21T07:52:28;17.98;;;9.15;;
74293;SDS011;64044;59.904;10.738;2023-11-21T07:54:54;23.42;;;9.77;;
74293;SDS011;64044;59.904;10.738;2023-11-21T07:57:21;18.77;;;9.70;;
74293;SDS011;64044;59.904;10.738;2023-11-21T07:59:47;15.65;;;9.20;;
74293;SDS011;64044;59.904;10.738;2023-11-21T08:02:12;16.88;;;9.50;;
74293;SDS011;64044;59.904;10.738;2023-11-21T08:04:38;16.92;;;8.95;;
74293;SDS011;64044;59.904;10.738;2023-11-21T08:07:04;15.45;;;8.75;;
74293;SDS011;64044;59.904;10.738;2023-11-21T08:09:30;18.52;;;9.15;;
74293;SDS011;64044;59.904;10.738;2023-11-21T08:11:56;17.85;;;9.18;;
74293;SDS011;64044;59.904;10.738;2023-11-21T08:14:21;20.50;;;8.77;;
74293;SDS011;64044;59.904;10.738;2023-11-21T08:16:50;16.88;;;8.93;;
74293;SDS011;64044;59.904;10.738;2023-11-21T08:19:17;23.50;;;9.02;;
74293;SDS011;64044;59.904;10.738;2023-11-21T08:21:43;15.63;;;8.55;;
74293;SDS011;64044;59.904;10.738;2023-11-21T08:24:10;17.25;;;8.45;;
74293;SDS011;64044;59.904;10.738;2023-11-21T08:26:36;17.27;;;8.18;;
74293;SDS011;64044;59.904;10.738;2023-11-21T08:29:02;16.90;;;9.55;;
74293;SDS011;64044;59.904;10.738;2023-11-21T08:31:28;16.70;;;8.98;;
74293;SDS011;64044;59.904;10.738;2023-11-21T08:33:54;13.63;;;8.13;;
74293;SDS011;64044;59.904;10.738;2023-11-21T08:36:21;14.90;;;8.57;;
74293;SDS011;64044;59.904;10.738;2023-11-21T08:38:50;13.52;;;7.97;;
74293;SDS011;64044;59.904;10.738;2023-11-21T08:41:19;14.68;;;9.18;;
74293;SDS011;64044;59.904;10.738;2023-11-21T08:43:51;17.17;;;8.88;;
74293;SDS011;64044;59.904;10.738;2023-11-21T08:46:18;13.82;;;8.48;;
74293;SDS011;64044;59.904;10.738;2023-11-21T08:48:44;17.65;;;9.48;;
74293;SDS011;64044;59.904;10.738;2023-11-21T08:51:11;16.73;;;9.45;;
74293;SDS011;64044;59.904;10.738;2023-11-21T08:53:37;16.42;;;8.13;;
74293;SDS011;64044;59.904;10.738;2023-11-21T08:56:03;16.25;;;8.70;;
74293;SDS011;64044;59.904;10.738;2023-11-21T08:58:29;17.20;;;9.48;;
74293;SDS011;64044;59.904;10.738;2023-11-21T09:00:57;14.85;;;8.40;;
74293;SDS011;64044;59.904;10.738;2023-11-21T09:03:23;17.70;;;9.07;;
74293;SDS011;64044;59.904;10.738;2023-11-21T09:05:48;16.75;;;9.20;;
74293;SDS011;64044;59.904;10.738;2023-11-21T09:08:14;15.23;;;9.13;;
74293;SDS011;64044;59.904;10.738;2023-11-21T09:10:40;14.38;;;8.82;;
74293;SDS011;64044;59.904;10.738;2023-11-21T09:13:07;15.25;;;9.25;;
74293;SDS011;64044;59.904;10.738;2023-11-21T09:15:34;16.90;;;9.43;;
74293;SDS011;64044;59.904;10.738;2023-11-21T09:18:00;16.60;;;9.55;;
74293;SDS011;64044;59.904;10.738;2023-11-21T09:20:27;13.77;;;8.93;;
74293;SDS011;64044;59.904;10.738;2023-11-21T09:22:53;15.10;;;9.02;;
74293;SDS011;64044;59.904;10.738;2023-11-21T09:25:20;15.98;;;9.63;;
74293;SDS011;64044;59.904;10.738;2023-11-21T09:27:46;17.73;;;8.65;;
74293;SDS011;64044;59.904;10.738;2023-11-21T09:30:12;18.55;;;8.95;;
74293;SDS011;64044;59.904;10.738;2023-11-21T09:32:39;14.88;;;8.82;;
74293;SDS011;64044;59.904;10.738;2023-11-21T09:35:05;19.67;;;9.10;;
74293;SDS011;64044;59.904;10.738;2023-11-21T09:37:35;16.65;;;9.38;;
74293;SDS011;64044;59.904;10.738;2023-11-21T09:40:01;17.77;;;9.20;;
74293;SDS011;64044;59.904;10.738;2023-11-21T09:42:30;15.02;;;8.52;;
74293;SDS011;64044;59.904;10.738;2023-11-21T09:47:49;13.30;;;8.25;;
74293;SDS011;64044;59.904;10.738;2023-11-21T09:50:17;13.38;;;8.68;;
74293;SDS011;64044;59.904;10.738;2023-11-21T09:55:46;14.55;;;8.75;;
74293;SDS011;64044;59.904;10.738;2023-11-21T09:58:13;15.43;;;9.90;;
74293;SDS011;64044;59.904;10.738;2023-11-21T10:00:40;15.55;;;8.25;;
74293;SDS011;64044;59.904;10.738;2023-11-21T10:03:07;15.95;;;8.27;;
74293;SDS011;64044;59.904;10.738;2023-11-21T10:05:34;12.60;;;8.05;;
74293;SDS011;64044;59.904;10.738;2023-11-21T10:08:00;13.95;;;8.50;;
74293;SDS011;64044;59.904;10.738;2023-11-21T10:10:27;14.52;;;8.27;;
74293;SDS011;64044;59.904;10.738;2023-11-21T10:12:55;19.13;;;8.50;;
74293;SDS011;64044;59.904;10.738;2023-11-21T10:15:22;15.55;;;8.88;;
74293;SDS011;64044;59.904;10.738;2023-11-21T10:17:52;15.38;;;8.10;;
74293;SDS011;64044;59.904;10.738;2023-11-21T10:20:19;15.68;;;7.65;;
74293;SDS011;64044;59.904;10.738;2023-11-21T10:22:45;12.30;;;7.05;;
74293;SDS011;64044;59.904;10.738;2023-11-21T10:25:11;18.48;;;7.88;;
74293;SDS011;64044;59.904;10.738;2023-11-21T10:27:41;14.23;;;8.13;;
74293;SDS011;64044;59.904;10.738;2023-11-21T10:30:08;12.10;;;7.22;;
74293;SDS011;64044;59.904;10.738;2023-11-21T10:32:41;13.10;;;7.32;;
74293;SDS011;64044;59.904;10.738;2023-11-21T10:35:08;16.95;;;7.05;;
74293;SDS011;64044;59.904;10.738;2023-11-21T10:37:38;12.10;;;7.85;;
74293;SDS011;64044;59.904;10.738;2023-11-21T10:40:07;14.55;;;7.55;;
74293;SDS011;64044;59.904;10.738;2023-11-21T10:42:40;15.80;;;7.72;;
74293;SDS011;64044;59.904;10.738;2023-11-21T10:45:07;14.88;;;7.53;;
74293;SDS011;64044;59.904;10.738;2023-11-21T10:47:40;12.75;;;7.13;;
74293;SDS011;64044;59.904;10.738;2023-11-21T10:50:07;13.07;;;6.75;;
74293;SDS011;64044;59.904;10.738;2023-11-21T10:52:36;14.05;;;6.75;;
74293;SDS011;64044;59.904;10.738;2023-11-21T10:55:15;10.27;;;6.57;;
74293;SDS011;64044;59.904;10.738;2023-11-21T10:57:50;13.85;;;7.05;;
74293;SDS011;64044;59.904;10.738;2023-11-21T11:00:17;11.30;;;6.90;;
74293;SDS011;64044;59.904;10.738;2023-11-21T11:02:50;14.30;;;7.57;;
74293;SDS011;64044;59.904;10.738;2023-11-21T11:05:19;11.32;;;6.50;;
74293;SDS011;64044;59.904;10.738;2023-11-21T11:07:47;7.90;;;5.70;;
74293;SDS011;64044;59.904;10.738;2023-11-21T11:10:19;10.40;;;6.30;;
74293;SDS011;64044;59.904;10.738;2023-11-21T11:12:51;9.52;;;6.10;;
74293;SDS011;64044;59.904;10.738;2023-11-21T11:15:17;9.60;;;6.00;;
74293;SDS011;64044;59.904;10.738;2023-11-21T11:17:45;10.15;;;6.80;;
74293;SDS011;64044;59.904;10.738;2023-11-21T11:20:11;9.18;;;6.32;;
74293;SDS011;64044;59.904;10.738;2023-11-21T11:28:06;11.57;;;6.63;;
74293;SDS011;64044;59.904;10.738;2023-11-21T11:33:36;11.05;;;6.45;;
74293;SDS011;64044;59.904;10.738;2023-11-21T11:38:45;9.15;;;6.07;;
74293;SDS011;64044;59.904;10.738;2023-11-21T11:41:11;11.57;;;5.75;;
74293;SDS011;64044;59.904;10.738;2023-11-21T11:43:37;10.80;;;6.45;;
74293;SDS011;64044;59.904;10.738;2023-11-21T11:46:10;10.82;;;6.28;;
74293;SDS011;64044;59.904;10.738;2023-11-21T11:48:38;10.30;;;5.90;;
74293;SDS011;64044;59.904;10.738;2023-11-21T11:51:11;13.35;;;5.85;;
74293;SDS011;64044;59.904;10.738;2023-11-21T11:53:42;13.60;;;6.75;;
74293;SDS011;64044;59.904;10.738;2023-11-21T11:58:44;10.43;;;6.15;;
74293;SDS011;64044;59.904;10.738;2023-11-21T12:01:11;10.75;;;6.32;;
74293;SDS011;64044;59.904;10.738;2023-11-21T12:03:37;9.02;;;6.32;;
74293;SDS011;64044;59.904;10.738;2023-11-21T12:06:04;15.95;;;7.00;;
74293;SDS011;64044;59.904;10.738;2023-11-21T12:08:32;10.70;;;6.25;;
74293;SDS011;64044;59.904;10.738;2023-11-21T12:10:57;8.65;;;5.88;;
74293;SDS011;64044;59.904;10.738;2023-11-21T12:13:23;12.75;;;5.97;;
74293;SDS011;64044;59.904;10.738;2023-11-21T12:15:49;9.40;;;5.97;;
74293;SDS011;64044;59.904;10.738;2023-11-21T12:18:15;8.50;;;5.43;;
74293;SDS011;64044;59.904;10.738;2023-11-21T12:20:41;12.40;;;5.68;;
74293;SDS011;64044;59.904;10.738;2023-11-21T12:23:08;12.05;;;6.63;;
74293;SDS011;64044;59.904;10.738;2023-11-21T12:25:36;12.68;;;7.35;;
74293;SDS011;64044;59.904;10.738;2023-11-21T12:28:02;11.05;;;6.65;;
74293;SDS011;64044;59.904;10.738;2023-11-21T12:30:29;11.45;;;7.25;;
74293;SDS011;64044;59.904;10.738;2023-11-21T12:32:57;10.63;;;7.13;;
74293;SDS011;64044;59.904;10.738;2023-11-21T12:35:24;10.38;;;6.32;;
74293;SDS011;64044;59.904;10.738;2023-11-21T12:37:59;11.40;;;7.30;;
74293;SDS011;64044;59.904;10.738;2023-11-21T12:40:27;8.75;;;6.45;;
74293;SDS011;64044;59.904;10.738;2023-11-21T12:42:57;12.20;;;6.63;;
74293;SDS011;64044;59.904;10.738;2023-11-21T12:45:27;10.13;;;6.80;;
74293;SDS011;64044;59.904;10.738;2023-11-21T12:50:34;9.40;;;6.30;;
74293;SDS011;64044;59.904;10.738;2023-11-21T12:53:05;7.65;;;5.18;;
74293;SDS011;64044;59.904;10.738;2023-11-21T12:55:37;8.73;;;5.22;;
74293;SDS011;64044;59.904;10.738;2023-11-21T12:58:06;10.35;;;6.05;;
74293;SDS011;64044;59.904;10.738;2023-11-21T13:00:42;7.85;;;5.97;;
74293;SDS011;64044;59.904;10.738;2023-11-21T13:03:11;12.82;;;6.60;;
74293;SDS011;64044;59.904;10.738;2023-11-21T13:05:41;16.90;;;7.63;;
74293;SDS011;64044;59.904;10.738;2023-11-21T13:11:06;8.85;;;6.00;;
74293;SDS011;64044;59.904;10.738;2023-11-21T13:13:33;10.20;;;6.70;;
74293;SDS011;64044;59.904;10.738;2023-11-21T13:15:59;10.38;;;6.90;;
74293;SDS011;64044;59.904;10.738;2023-11-21T13:18:26;14.35;;;7.50;;
74293;SDS011;64044;59.904;10.738;2023-11-21T13:20:56;9.15;;;6.55;;
74293;SDS011;64044;59.904;10.738;2023-11-21T13:23:23;11.02;;;7.07;;
74293;SDS011;64044;59.904;10.738;2023-11-21T13:25:50;9.15;;;7.32;;
74293;SDS011;64044;59.904;10.738;2023-11-21T13:28:17;10.00;;;7.18;;
74293;SDS011;64044;59.904;10.738;2023-11-21T13:30:48;8.68;;;6.72;;
74293;SDS011;64044;59.904;10.738;2023-11-21T13:33:17;10.63;;;6.65;;
74293;SDS011;64044;59.904;10.738;2023-11-21T13:35:46;10.27;;;6.93;;
74293;SDS011;64044;59.904;10.738;2023-11-21T13:38:15;11.38;;;6.78;;
74293;SDS011;64044;59.904;10.738;2023-11-21T13:40:49;14.60;;;6.88;;
74293;SDS011;64044;59.904;10.738;2023-11-21T13:43:19;12.48;;;6.78;;
74293;SDS011;64044;59.904;10.738;2023-11-21T13:45:47;11.57;;;6.93;;
74293;SDS011;64044;59.904;10.738;2023-11-21T13:48:23;9.15;;;6.57;;
74293;SDS011;64044;59.904;10.738;2023-11-21T13:51:08;10.05;;;6.72;;
74293;SDS011;64044;59.904;10.738;2023-11-21T13:53:54;11.43;;;6.38;;
74293;SDS011;64044;59.904;10.738;2023-11-21T13:56:20;14.13;;;7.10;;
74293;SDS011;64044;59.904;10.738;2023-11-21T13:58:49;12.35;;;7.90;;
74293;SDS011;64044;59.904;10.738;2023-11-21T14:01:19;12.90;;;7.13;;
74293;SDS011;64044;59.904;10.738;2023-11-21T14:04:04;11.98;;;6.75;;
74293;SDS011;64044;59.904;10.738;2023-11-21T14:06:49;13.70;;;6.78;;
74293;SDS011;64044;59.904;10.738;2023-11-21T14:09:18;16.48;;;7.63;;
74293;SDS011;64044;59.904;10.738;2023-11-21T14:11:50;12.63;;;7.53;;
74293;SDS011;64044;59.904;10.738;2023-11-21T14:14:21;13.30;;;7.95;;
74293;SDS011;64044;59.904;10.738;2023-11-21T14:16:50;14.95;;;7.95;;
74293;SDS011;64044;59.904;10.738;2023-11-21T14:19:16;14.88;;;7.82;;
74293;SDS011;64044;59.904;10.738;2023-11-21T14:21:43;13.30;;;7.80;;
74293;SDS011;64044;59.904;10.738;2023-11-21T14:26:40;11.07;;;6.25;;
74293;SDS011;64044;59.904;10.738;2023-11-21T14:29:07;12.68;;;5.88;;
74293;SDS011;64044;59.904;10.738;2023-11-21T14:31:34;12.68;;;6.80;;
74293;SDS011;64044;59.904;10.738;2023-11-21T14:34:00;7.82;;;4.72;;
74293;SDS011;64044;59.904;10.738;2023-11-21T14:36:31;10.13;;;5.60;;
74293;SDS011;64044;59.904;10.738;2023-11-21T14:38:57;7.63;;;5.10;;
74293;SDS011;64044;59.904;10.738;2023-11-21T14:41:23;9.85;;;5.10;;
74293;SDS011;64044;59.904;10.738;2023-11-21T14:43:50;7.93;;;4.85;;
74293;SDS011;64044;59.904;10.738;2023-11-21T14:46:16;15.52;;;5.57;;
74293;SDS011;64044;59.904;10.738;2023-11-21T14:48:44;9.30;;;4.93;;
74293;SDS011;64044;59.904;10.738;2023-11-21T14:51:24;9.77;;;5.07;;
74293;SDS011;64044;59.904;10.738;2023-11-21T14:53:58;7.93;;;4.90;;
74293;SDS011;64044;59.904;10.738;2023-11-21T14:56:35;8.95;;;4.95;;
74293;SDS011;64044;59.904;10.738;2023-11-21T14:59:03;9.35;;;5.55;;
74293;SDS011;64044;59.904;10.738;2023-11-21T15:01:37;9.65;;;5.68;;
74293;SDS011;64044;59.904;10.738;2023-11-21T15:04:11;7.40;;;4.93;;
74293;SDS011;64044;59.904;10.738;2023-11-21T15:06:48;13.25;;;6.03;;